Time;durP1;ratioP1;P1;durP2;ratioP2;P2;SDS_P1;SDS_P2;PMS_P1;PMS_P2;Temp;Humidity;BMP_temperature;BMP_pressure;BME280_temperature;BME280_humidity;BME280_pressure;Samples;Min_cycle;Max_cycle;Signal;HPM_P1;HPM_P2
2021/11/25 00:00:39;;;;;;;14.18;10.23;;;;;;;5.62;65.30;96028.28;5004398;28;20041;-79
2021/11/25 00:03:05;;;;;;;16.20;10.73;;;;;;;5.64;65.28;96023.69;5009859;28;20037;-78
2021/11/25 00:05:30;;;;;;;17.08;10.43;;;;;;;5.64;65.11;96029.81;5010034;28;20088;-77
2021/11/25 00:07:56;;;;;;;15.45;10.85;;;;;;;5.62;65.34;96023.81;5006827;28;20025;-77
2021/11/25 00:10:21;;;;;;;16.65;9.98;;;;;;;5.55;65.48;96018.16;5004033;28;20037;-78
2021/11/25 00:12:47;;;;;;;16.45;10.38;;;;;;;5.62;65.40;96022.97;5005343;28;20029;-78
2021/11/25 00:15:13;;;;;;;18.33;10.68;;;;;;;5.58;65.51;96022.38;5006082;28;20026;-79
2021/11/25 00:17:38;;;;;;;15.32;10.07;;;;;;;5.51;65.54;96024.75;5006754;28;20674;-79
2021/11/25 00:20:06;;;;;;;16.40;10.00;;;;;;;5.42;65.82;96023.69;5004723;28;20033;-78
2021/11/25 00:22:32;;;;;;;16.13;10.48;;;;;;;5.43;65.95;96028.03;5005114;28;20539;-78
2021/11/25 00:24:57;;;;;;;15.02;10.50;;;;;;;5.30;66.21;96025.56;5005836;28;20030;-77
2021/11/25 00:27:23;;;;;;;16.15;10.98;;;;;;;5.33;66.46;96032.44;5005654;28;20408;-77
2021/11/25 00:29:48;;;;;;;16.42;10.40;;;;;;;5.35;66.69;96034.97;5003483;28;20463;-77
2021/11/25 00:32:14;;;;;;;14.25;10.05;;;;;;;5.22;66.78;96029.84;5005211;28;20030;-79
2021/11/25 00:34:41;;;;;;;13.38;9.57;;;;;;;5.32;66.80;96031.59;5005951;28;20058;-78
2021/11/25 00:37:06;;;;;;;15.38;10.18;;;;;;;5.38;66.11;96029.41;5005598;28;20348;-78
2021/11/25 00:39:31;;;;;;;14.60;9.80;;;;;;;5.38;66.38;96037.38;5003058;28;20046;-78
2021/11/25 00:41:57;;;;;;;13.32;9.30;;;;;;;5.37;66.48;96028.53;5002417;28;20270;-79
2021/11/25 00:44:22;;;;;;;14.43;9.50;;;;;;;5.37;66.87;96035.69;4999278;28;20424;-76
2021/11/25 00:46:48;;;;;;;15.88;10.25;;;;;;;5.36;66.93;96026.00;5000194;28;20045;-77
2021/11/25 00:49:13;;;;;;;17.27;10.00;;;;;;;5.41;66.09;96030.00;5003424;28;20041;-77
2021/11/25 00:51:39;;;;;;;14.68;10.35;;;;;;;5.41;66.66;96034.47;5005499;28;20507;-77
2021/11/25 00:54:04;;;;;;;14.30;9.63;;;;;;;5.42;66.97;96030.81;5005053;28;20112;-77
2021/11/25 00:56:30;;;;;;;14.05;9.55;;;;;;;5.42;67.25;96026.34;5005389;28;20033;-78
2021/11/25 00:58:55;;;;;;;15.85;9.75;;;;;;;5.40;66.98;96020.31;5005676;28;20034;-78
2021/11/25 01:01:21;;;;;;;14.93;9.32;;;;;;;5.34;66.32;96010.19;5005249;28;20423;-76
2021/11/25 01:03:46;;;;;;;13.48;9.13;;;;;;;5.21;66.74;96013.03;5005185;28;20022;-77
2021/11/25 01:06:11;;;;;;;16.48;10.00;;;;;;;5.22;67.06;96016.53;5006300;28;20037;-76
2021/11/25 01:08:37;;;;;;;14.73;9.57;;;;;;;5.22;67.74;96013.88;5005052;28;20033;-76
2021/11/25 01:11:03;;;;;;;13.75;9.88;;;;;;;5.24;67.00;96018.09;5004646;28;20044;-80
2021/11/25 01:13:28;;;;;;;16.75;10.52;;;;;;;5.21;67.43;96006.91;5005173;28;20113;-78
2021/11/25 01:15:54;;;;;;;14.23;10.13;;;;;;;5.21;67.70;96002.41;5006579;28;20114;-79
2021/11/25 01:18:19;;;;;;;14.45;9.73;;;;;;;5.24;67.47;96007.47;5005333;28;20481;-78
2021/11/25 01:20:46;;;;;;;16.55;11.15;;;;;;;5.24;66.80;96003.97;5004720;28;20057;-78
2021/11/25 01:23:13;;;;;;;14.82;10.02;;;;;;;5.23;66.79;96007.59;5004763;28;20058;-78
2021/11/25 01:25:39;;;;;;;16.50;10.23;;;;;;;5.23;67.07;96007.59;5004882;28;20030;-78
2021/11/25 01:28:06;;;;;;;17.17;10.82;;;;;;;5.15;67.65;96005.56;5004364;28;20029;-78
2021/11/25 01:30:32;;;;;;;16.25;10.75;;;;;;;5.13;67.74;95999.53;5002818;28;20037;-77
2021/11/25 01:32:57;;;;;;;15.40;10.07;;;;;;;5.20;67.33;96000.72;5004012;28;20395;-78
2021/11/25 01:35:22;;;;;;;16.35;10.70;;;;;;;5.16;67.49;95997.47;5005513;28;20033;-78
2021/11/25 01:37:50;;;;;;;14.40;10.05;;;;;;;5.14;67.60;95999.41;5005385;28;20042;-79
2021/11/25 01:40:17;;;;;;;19.48;11.25;;;;;;;5.10;67.60;95997.13;4997225;28;20037;-78
2021/11/25 01:42:42;;;;;;;16.00;11.30;;;;;;;5.12;66.93;95997.88;5004199;28;20022;-78
2021/11/25 01:45:08;;;;;;;18.17;11.40;;;;;;;5.09;68.30;95998.97;5006162;28;20033;-78
2021/11/25 01:47:34;;;;;;;18.23;11.70;;;;;;;5.09;68.23;95992.81;5005212;28;20025;-77
2021/11/25 01:49:59;;;;;;;16.90;11.35;;;;;;;5.04;67.33;95991.38;5005822;28;20419;-78
2021/11/25 01:52:25;;;;;;;18.70;10.82;;;;;;;5.02;68.19;96003.94;5007712;28;20022;-78
2021/11/25 01:54:50;;;;;;;18.23;12.07;;;;;;;4.94;68.50;95993.97;5009626;28;20033;-79
2021/11/25 01:57:16;;;;;;;19.60;11.75;;;;;;;4.95;68.63;95998.31;5009648;28;20105;-78
2021/11/25 01:59:41;;;;;;;21.55;11.75;;;;;;;4.98;68.31;96002.50;5008620;28;20407;-78
2021/11/25 02:02:07;;;;;;;19.38;11.85;;;;;;;4.98;68.48;95991.88;5011349;28;20030;-78
2021/11/25 02:04:32;;;;;;;18.98;12.25;;;;;;;4.97;68.22;95995.50;5009189;28;20030;-78
2021/11/25 02:06:58;;;;;;;20.45;13.15;;;;;;;4.98;67.63;95983.06;5009728;28;20096;-79
2021/11/25 02:09:23;;;;;;;20.05;12.60;;;;;;;4.95;68.35;95992.13;5008109;28;20034;-78
2021/11/25 02:11:49;;;;;;;20.05;12.65;;;;;;;4.90;68.28;95983.72;5009964;28;20026;-78
2021/11/25 02:14:14;;;;;;;22.17;13.50;;;;;;;4.92;68.10;95992.38;5006992;28;20026;-78
2021/11/25 02:16:39;;;;;;;22.20;12.95;;;;;;;4.95;67.62;95984.16;5007849;28;20039;-78
2021/11/25 02:19:07;;;;;;;21.63;13.80;;;;;;;4.91;68.84;95980.94;5008172;28;20589;-79
2021/11/25 02:21:32;;;;;;;22.17;13.70;;;;;;;4.90;67.81;95983.72;5007523;28;20439;-78
2021/11/25 02:23:58;;;;;;;20.90;13.52;;;;;;;4.87;68.29;95976.81;5009906;28;20029;-78
2021/11/25 02:26:23;;;;;;;24.60;14.57;;;;;;;4.93;67.55;95978.16;5008729;28;20512;-78
2021/11/25 02:28:49;;;;;;;25.25;14.15;;;;;;;4.93;68.07;95972.81;5007808;28;20471;-79
2021/11/25 02:31:14;;;;;;;23.48;14.18;;;;;;;4.89;68.55;95976.69;5007748;28;20405;-78
2021/11/25 02:33:40;;;;;;;23.40;12.65;;;;;;;4.94;67.73;95971.84;5008750;28;20412;-77
2021/11/25 02:36:06;;;;;;;22.13;13.68;;;;;;;4.97;67.93;95971.59;5008204;28;20054;-78
2021/11/25 02:38:31;;;;;;;23.08;13.20;;;;;;;4.95;68.01;95974.38;5008997;28;20037;-78
2021/11/25 02:40:57;;;;;;;21.10;13.60;;;;;;;5.00;67.87;95973.16;5007405;28;20033;-77
2021/11/25 02:43:24;;;;;;;20.80;12.82;;;;;;;4.95;67.62;95971.72;5008282;28;20256;-78
2021/11/25 02:45:59;;;;;;;19.83;12.27;;;;;;;4.94;67.80;95974.50;5007868;28;20037;-79
2021/11/25 02:48:32;;;;;;;22.85;13.40;;;;;;;4.90;68.18;95973.91;5007634;28;20038;-78
2021/11/25 02:50:59;;;;;;;20.42;13.25;;;;;;;4.86;68.43;95966.31;5007760;28;20033;-78
2021/11/25 02:53:26;;;;;;;20.20;12.68;;;;;;;4.87;68.36;95968.03;5006957;28;20072;-78
2021/11/25 02:55:59;;;;;;;22.02;13.57;;;;;;;4.73;68.21;95962.03;4974357;28;20069;-77
2021/11/25 02:58:25;;;;;;;21.95;12.65;;;;;;;4.74;68.60;95957.56;5007041;28;20038;-79
2021/11/25 03:00:50;;;;;;;21.35;12.48;;;;;;;4.66;68.30;95964.34;5006857;28;20025;-77
2021/11/25 03:03:16;;;;;;;20.65;12.68;;;;;;;4.70;68.84;95959.63;5007383;28;20026;-78
2021/11/25 03:05:43;;;;;;;20.25;12.65;;;;;;;4.62;68.61;95954.97;5007448;28;20087;-79
2021/11/25 03:08:09;;;;;;;20.00;11.80;;;;;;;4.62;68.90;95960.28;5008148;28;20032;-78
2021/11/25 03:10:42;;;;;;;22.80;12.38;;;;;;;4.62;68.80;95954.97;5005454;28;20038;-78
2021/11/25 03:13:08;;;;;;;23.35;13.23;;;;;;;4.62;68.38;95954.09;5007068;28;20428;-77
2021/11/25 03:15:34;;;;;;;21.63;13.13;;;;;;;4.65;69.13;95964.47;5006276;28;20076;-78
2021/11/25 03:17:59;;;;;;;22.05;13.23;;;;;;;4.66;68.94;95955.56;5006170;28;20560;-79
2021/11/25 03:20:25;;;;;;;19.05;12.05;;;;;;;4.61;69.28;95957.75;5007561;28;20033;-80
2021/11/25 03:22:50;;;;;;;22.02;12.52;;;;;;;4.60;68.91;95956.03;5007339;28;20046;-78
2021/11/25 03:25:16;;;;;;;22.08;13.18;;;;;;;4.55;68.65;95953.75;5007820;28;20026;-79
2021/11/25 03:27:41;;;;;;;21.02;13.02;;;;;;;4.52;69.12;95960.19;5007591;28;20448;-79
2021/11/25 03:30:07;;;;;;;23.02;14.02;;;;;;;4.48;69.13;95953.44;5006194;28;20053;-79
2021/11/25 03:32:33;;;;;;;20.67;12.98;;;;;;;4.50;69.42;95948.84;5007747;28;20036;-78
2021/11/25 03:34:58;;;;;;;22.15;13.18;;;;;;;4.53;69.35;95943.25;5007873;28;20419;-78
2021/11/25 03:37:24;;;;;;;20.98;12.90;;;;;;;4.50;68.87;95945.34;5006671;28;20053;-78
2021/11/25 03:39:49;;;;;;;22.75;11.88;;;;;;;4.40;69.00;95937.28;5005508;28;20030;-78
2021/11/25 03:42:15;;;;;;;23.90;13.35;;;;;;;4.49;68.90;95933.03;5008146;28;20086;-78
2021/11/25 03:44:43;;;;;;;21.92;13.45;;;;;;;4.49;68.08;95948.97;5007002;28;20026;-78
2021/11/25 03:47:09;;;;;;;19.85;12.38;;;;;;;4.54;68.34;95941.47;5007573;28;20072;-78
2021/11/25 03:49:34;;;;;;;19.00;12.40;;;;;;;4.50;68.59;95940.03;5005714;28;20049;-77
2021/11/25 03:52:00;;;;;;;22.02;12.80;;;;;;;4.47;68.37;95943.78;5007457;28;20080;-78
2021/11/25 03:54:25;;;;;;;23.00;13.05;;;;;;;4.49;68.89;95939.19;5007077;28;20168;-79
2021/11/25 03:56:50;;;;;;;23.60;13.18;;;;;;;4.54;68.16;95934.34;5007944;28;20033;-77
2021/11/25 03:59:16;;;;;;;21.95;13.07;;;;;;;4.50;68.62;95930.25;5006123;28;20029;-79
2021/11/25 04:01:41;;;;;;;21.25;13.32;;;;;;;4.49;68.48;95933.88;5006733;28;20469;-79
2021/11/25 04:04:09;;;;;;;21.60;12.68;;;;;;;4.45;68.22;95937.75;5006211;28;20041;-78
2021/11/25 04:06:35;;;;;;;25.15;13.55;;;;;;;4.48;68.35;95929.53;5004816;28;20028;-77
2021/11/25 04:09:00;;;;;;;20.67;12.88;;;;;;;4.49;67.91;95938.34;5005546;28;20109;-78
2021/11/25 04:11:26;;;;;;;19.15;12.00;;;;;;;4.44;67.92;95925.44;5004443;28;20484;-77
2021/11/25 04:13:51;;;;;;;19.50;12.20;;;;;;;4.33;69.23;95934.28;4967233;28;20467;-77
2021/11/25 04:16:17;;;;;;;20.25;12.82;;;;;;;4.35;68.44;95928.84;4984440;28;20441;-78
2021/11/25 04:18:42;;;;;;;20.25;12.43;;;;;;;4.35;68.58;95920.88;4986932;28;20106;-77
2021/11/25 04:21:08;;;;;;;20.35;12.88;;;;;;;4.35;67.86;95918.22;4986013;28;20076;-76
2021/11/25 04:23:34;;;;;;;21.77;11.98;;;;;;;4.28;68.58;95915.22;4987226;28;20023;-79
2021/11/25 04:25:59;;;;;;;19.75;11.63;;;;;;;4.33;68.45;95918.34;4986085;28;20026;-77
2021/11/25 04:28:25;;;;;;;19.67;12.35;;;;;;;4.33;67.93;95913.91;4984639;28;20081;-78
2021/11/25 04:35:27;;;;;;;19.17;11.30;;;;;;;4.33;68.39;95913.03;4969409;28;20030;-77
2021/11/25 04:36:19;;;;;;;18.95;11.98;;;;;;;4.30;67.72;95930.09;4986822;28;20157;-78
2021/11/25 04:38:45;;;;;;;19.90;12.48;;;;;;;4.34;67.71;95920.03;4987911;28;20404;-78
2021/11/25 04:41:10;;;;;;;17.40;11.00;;;;;;;4.33;67.63;95929.84;5005972;28;20026;-79
2021/11/25 04:43:35;;;;;;;16.92;10.35;;;;;;;4.30;68.26;95924.78;5007118;28;20052;-78
2021/11/25 04:46:01;;;;;;;17.58;11.10;;;;;;;4.30;67.40;95927.44;5006369;28;20033;-76
2021/11/25 04:48:27;;;;;;;18.92;10.80;;;;;;;4.24;68.06;95922.59;5007839;28;20038;-77
2021/11/25 04:50:52;;;;;;;21.35;11.93;;;;;;;4.24;67.26;95919.94;5005232;28;20112;-78
2021/11/25 04:53:18;;;;;;;18.08;11.05;;;;;;;4.22;67.14;95921.03;5006323;28;20041;-78
2021/11/25 04:55:44;;;;;;;22.33;12.95;;;;;;;4.20;67.87;95923.81;5005890;28;20511;-80
2021/11/25 04:58:09;;;;;;;17.45;10.75;;;;;;;4.21;67.88;95925.50;5007124;28;20476;-78
2021/11/25 05:00:35;;;;;;;17.00;11.27;;;;;;;4.22;67.68;95932.53;5007150;28;20065;-78
2021/11/25 05:03:00;;;;;;;18.38;11.25;;;;;;;4.25;67.41;95924.31;5003039;28;20635;-77
2021/11/25 05:05:26;;;;;;;17.35;10.98;;;;;;;4.27;66.83;95922.34;5006400;28;20022;-79
2021/11/25 05:07:51;;;;;;;15.88;10.10;;;;;;;4.26;67.80;95920.66;5004488;28;20025;-77
2021/11/25 05:10:17;;;;;;;16.17;10.23;;;;;;;4.24;67.09;95924.44;5007296;28;20505;-80
2021/11/25 05:12:42;;;;;;;15.27;10.52;;;;;;;4.19;67.46;95927.47;5004875;28;20477;-78
2021/11/25 05:15:10;;;;;;;18.92;10.43;;;;;;;4.21;67.12;95928.16;5005121;28;20022;-78
2021/11/25 05:17:35;;;;;;;18.35;11.40;;;;;;;4.17;67.48;95930.25;4988501;28;20053;-80
2021/11/25 05:20:01;;;;;;;18.35;10.93;;;;;;;4.17;67.33;95932.91;4989543;28;20110;-79
2021/11/25 05:22:27;;;;;;;18.30;11.02;;;;;;;4.12;68.12;95928.91;5005224;28;20493;-79
2021/11/25 05:24:52;;;;;;;20.85;12.90;;;;;;;4.13;68.27;95927.94;5005246;28;20049;-79
2021/11/25 05:27:18;;;;;;;19.45;11.82;;;;;;;4.15;67.73;95924.22;5012746;28;20040;-79
2021/11/25 05:29:43;;;;;;;20.92;12.73;;;;;;;4.14;68.39;95913.72;5012441;28;20172;-78
2021/11/25 05:32:10;;;;;;;20.40;10.93;;;;;;;4.23;68.32;95925.38;4996178;28;20407;-78
2021/11/25 05:34:36;;;;;;;17.50;11.93;;;;;;;4.28;67.65;95921.41;5011060;28;20061;-78
2021/11/25 05:37:02;;;;;;;21.55;12.38;;;;;;;4.31;66.90;95928.25;5012947;28;20053;-81
2021/11/25 05:39:27;;;;;;;17.63;10.98;;;;;;;4.33;66.83;95928.97;5010340;28;20022;-78
2021/11/25 05:41:53;;;;;;;20.50;11.60;;;;;;;4.34;66.58;95930.66;5007010;28;20034;-81
2021/11/25 05:44:18;;;;;;;21.85;12.68;;;;;;;4.34;66.96;95928.00;5011025;28;20532;-77
2021/11/25 05:46:44;;;;;;;20.48;11.98;;;;;;;4.33;67.78;95928.97;5009892;28;20025;-78
2021/11/25 05:49:09;;;;;;;20.50;11.57;;;;;;;4.36;67.06;95925.22;5010269;28;20029;-83
2021/11/25 05:51:35;;;;;;;17.95;10.68;;;;;;;4.31;66.82;95931.75;5011291;28;20431;-83
2021/11/25 05:54:01;;;;;;;23.73;11.98;;;;;;;4.29;67.24;95917.75;5014365;28;20037;-80
2021/11/25 05:56:26;;;;;;;18.83;11.35;;;;;;;4.22;68.01;95929.88;5012565;28;20061;-83
2021/11/25 05:58:54;;;;;;;18.15;11.07;;;;;;;4.22;67.41;95924.56;4991308;28;20508;-78
2021/11/25 06:01:21;;;;;;;19.45;12.10;;;;;;;4.23;67.70;95936.84;5009833;28;20033;-82
2021/11/25 06:03:48;;;;;;;18.00;11.00;;;;;;;4.15;68.80;95941.94;5011483;28;20038;-81
2021/11/25 06:06:13;;;;;;;21.23;11.27;;;;;;;4.18;68.12;95942.53;5012592;28;20029;-81
2021/11/25 06:08:39;;;;;;;17.48;11.43;;;;;;;4.14;68.83;95937.59;5008129;28;20432;-80
2021/11/25 06:11:04;;;;;;;20.88;11.13;;;;;;;4.21;68.21;95941.44;5011051;28;20033;-79
2021/11/25 06:13:30;;;;;;;18.77;11.35;;;;;;;4.19;67.93;95946.88;5013372;28;20022;-80
2021/11/25 06:15:55;;;;;;;16.98;10.65;;;;;;;4.16;68.35;95948.94;4998673;28;20044;-79
2021/11/25 06:18:21;;;;;;;18.30;11.80;;;;;;;4.17;68.43;95950.63;5016595;28;20497;-80
2021/11/25 06:20:46;;;;;;;19.67;12.05;;;;;;;4.17;68.83;95951.47;4994137;28;20037;-80
2021/11/25 06:23:12;;;;;;;17.13;11.73;;;;;;;4.16;68.49;95951.59;5012998;28;20041;-80
2021/11/25 06:25:38;;;;;;;16.95;12.25;;;;;;;4.16;68.37;95954.25;5012261;28;20096;-80
2021/11/25 06:28:04;;;;;;;19.38;11.55;;;;;;;4.22;68.17;95955.56;4995953;28;20507;-80
2021/11/25 06:30:29;;;;;;;17.08;11.70;;;;;;;4.22;68.28;95950.25;5012226;28;20014;-80
2021/11/25 06:32:55;;;;;;;17.25;11.10;;;;;;;4.27;68.41;95956.03;5013283;28;20040;-81
2021/11/25 06:35:20;;;;;;;16.33;10.77;;;;;;;4.28;67.97;95953.25;5011117;28;20029;-80
2021/11/25 06:37:51;;;;;;;17.40;10.52;;;;;;;4.31;67.70;95950.34;4992637;28;20041;-80
2021/11/25 06:40:21;;;;;;;18.27;11.93;;;;;;;4.23;68.51;95943.97;4992753;28;20050;-81
2021/11/25 06:42:47;;;;;;;19.38;11.15;;;;;;;4.20;68.08;95942.41;5007734;28;20116;-80
2021/11/25 06:45:12;;;;;;;21.02;12.73;;;;;;;4.27;68.31;95948.91;5009227;28;20112;-81
2021/11/25 06:47:38;;;;;;;17.98;12.02;;;;;;;4.34;67.99;95946.59;4991131;28;20033;-79
2021/11/25 06:50:08;;;;;;;16.58;11.07;;;;;;;4.37;67.82;95945.53;5002942;28;20030;-80
2021/11/25 06:52:34;;;;;;;19.35;11.65;;;;;;;4.41;67.32;95941.63;4996349;28;20038;-80
2021/11/25 06:54:59;;;;;;;13.60;9.90;;;;;;;4.43;68.11;95939.69;5005721;28;20053;-79
2021/11/25 06:57:25;;;;;;;19.50;11.32;;;;;;;4.45;67.92;95940.41;5015834;28;20026;-80
2021/11/25 06:59:50;;;;;;;16.17;10.00;;;;;;;4.47;67.49;95941.13;5005250;28;20072;-80
2021/11/25 07:02:16;;;;;;;17.00;9.73;;;;;;;4.43;67.42;95950.31;4987411;28;20033;-81
2021/11/25 07:04:41;;;;;;;14.48;9.98;;;;;;;4.42;67.95;95954.78;5005032;28;20030;-81
2021/11/25 07:07:07;;;;;;;14.65;10.57;;;;;;;4.41;66.93;95949.59;5008941;28;20017;-81
2021/11/25 07:09:32;;;;;;;18.30;10.73;;;;;;;4.44;66.86;95944.03;5005980;28;20026;-82
2021/11/25 07:11:58;;;;;;;17.42;10.55;;;;;;;4.45;67.11;95946.56;5006694;28;20041;-80
2021/11/25 07:14:23;;;;;;;17.35;10.02;;;;;;;4.46;67.37;95947.41;5006785;28;20037;-80
2021/11/25 07:16:49;;;;;;;17.20;11.32;;;;;;;4.45;67.52;95948.34;5006828;28;20018;-78
2021/11/25 07:19:14;;;;;;;17.40;11.05;;;;;;;4.44;67.61;95942.22;5005453;28;20038;-80
2021/11/25 07:21:40;;;;;;;17.05;10.52;;;;;;;4.50;66.82;95942.69;5002961;28;20036;-80
2021/11/25 07:24:06;;;;;;;17.13;9.73;;;;;;;4.48;67.10;95940.16;5005343;28;20168;-81
2021/11/25 07:26:31;;;;;;;16.05;10.18;;;;;;;4.49;66.65;95944.50;5007158;28;20025;-79
2021/11/25 07:28:57;;;;;;;15.93;10.30;;;;;;;4.52;66.89;95940.75;4987909;28;20029;-79
2021/11/25 07:31:28;;;;;;;16.80;11.18;;;;;;;4.63;66.39;95939.84;4985458;28;20034;-81
2021/11/25 07:33:54;;;;;;;15.10;10.00;;;;;;;4.71;66.60;95934.75;5005692;28;20066;-78
2021/11/25 07:36:19;;;;;;;16.23;10.05;;;;;;;4.75;66.12;95933.53;4989954;28;20080;-78
2021/11/25 07:38:45;;;;;;;19.85;9.15;;;;;;;4.81;66.05;95930.34;5005971;28;20539;-78
2021/11/25 07:41:10;;;;;;;16.25;8.98;;;;;;;4.86;65.97;95939.75;4973147;28;20036;-81
2021/11/25 07:43:35;;;;;;;16.42;8.48;;;;;;;4.88;65.58;95933.34;4988078;28;20040;-78
2021/11/25 07:46:01;;;;;;;14.38;8.95;;;;;;;4.87;64.97;95933.47;4989851;28;20480;-79
2021/11/25 07:48:27;;;;;;;15.43;8.82;;;;;;;4.76;64.84;95919.25;5006055;28;20400;-81
